• Join FlightAware (Why Join?)
  • Login
  • US Flag 
09:36PM EDT


 

Airport Tracker/Info


-or-


 

Live Flight TrackerFlight Track Log ✈ CCA1293 ✈ 04-Jul-2013 ✈ ZWWW / URC - ZWTN / HTN

Flight Track Log - Related Links

Times and Time Zones

All times are in EDT time to prevent confusion due to time zone crossing. See the CCA1293 flight status page for this flight to view local times or setup timezone preferences in your user account.

Time Position Orientation Groundspeed Altitude Reporting Facility
EDT Latitude Longitude Course Direction KTS MPH feet Rate Location/Type
04:00AM 39.5325 82.3905 223° Southwest  Level Estimated
04:01AM 39.4410 82.2937 219° Southwest  Level Estimated
04:02AM 39.3494 82.1971 219° Southwest  Level Estimated
04:03AM 39.2578 82.1008 219° Southwest  Level Estimated
04:04AM 39.1660 82.0048 219° Southwest  Level Estimated
04:05AM 39.0742 81.9089 219° Southwest  Level Estimated
04:06AM 38.9823 81.8134 219° Southwest  Level Estimated
04:07AM 38.8904 81.7180 219° Southwest  Level Estimated
04:08AM 38.7983 81.6230 219° Southwest  Level Estimated
04:09AM 38.7062 81.5281 219° Southwest  Level Estimated
04:10AM 38.6140 81.4336 219° Southwest  Level Estimated
04:11AM 38.5217 81.3392 219° Southwest  Level Estimated
04:12AM 38.4294 81.2451 219° Southwest  Level Estimated
04:13AM 38.3369 81.1513 219° Southwest  Level Estimated
04:14AM 38.2444 81.0576 218° Southwest  Level Estimated
04:15AM 38.1518 80.9643 218° Southwest  Level Estimated
04:16AM 38.0592 80.8711 218° Southwest  Level Estimated
04:17AM 37.9665 80.7782 218° Southwest  Level Estimated
04:18AM 37.8737 80.6855 218° Southwest  Level Estimated
04:19AM 37.7808 80.5931 218° Southwest  Level Estimated
04:20AM 37.6879 80.5009 218° Southwest  Level Estimated
04:21AM 37.5948 80.4089 218° Southwest  Level Estimated
04:22AM 37.5018 80.3172 218° Southwest  Level Estimated
04:23AM 37.4086 80.2256 218° Southwest  Level Estimated
04:24AM 37.3154 80.1344 218° Southwest  Level Estimated
04:25AM 37.2221 80.0433 218° Southwest  Level Estimated
04:26AM 37.1287 79.9524 218° Southwest  Level Estimated
04:27AM 37.0385 79.8649 218° Southwest  Level Estimated
04:28AM 37.0385 79.8649 50° Northeast  Level Estimated
04:29AM 37.0385 79.8649 50° Northeast  Level Estimated
04:30AM 37.0385 79.8649 50° Northeast  Level Estimated
04:31AM 37.0385 79.8649 50° Northeast  Level Estimated
04:32AM 37.0385 79.8649 50° Northeast  Level Estimated
04:33AM 37.0385 79.8649 50° Northeast  Level Estimated
04:34AM 37.0385 79.8649 50° Northeast  Level Estimated
04:35AM 37.0385 79.8649 50° Northeast  Level Estimated
04:36AM 37.0385 79.8649 50° Northeast  Level Estimated
04:37AM 37.0385 79.8649 50° Northeast  Level Estimated
04:38AM 37.0385 79.8649 50° Northeast  Level Estimated
04:39AM 37.0385 79.8649 50° Northeast  Level Estimated
04:40AM 37.0385 79.8649 50° Northeast  Level Estimated
04:41AM 37.0385 79.8649 50° Northeast  Level Estimated
04:42AM 37.0385 79.8649 50° Northeast  Level Estimated
04:43AM 37.0385 79.8649 50° Northeast  Level Estimated